Time;durP1;ratioP1;P1;durP2;ratioP2;P2;SDS_P1;SDS_P2;PMS_P1;PMS_P2;Temp;Humidity;BMP_temperature;BMP_pressure;BME280_temperature;BME280_humidity;BME280_pressure;Samples;Min_cycle;Max_cycle;Signal;HPM_P1;HPM_P2
2022/03/19 00:00:08;;;;;;;52.40;34.40;;;;;;;;;;5064833;28;20234;-85
2022/03/19 00:03:21;;;;;;;55.80;34.97;;;;;;;;;;5052852;28;20192;-85
2022/03/19 00:06:27;;;;;;;53.67;33.77;;;;;;;;;;5041808;28;20176;-85
2022/03/19 00:09:32;;;;;;;56.03;33.87;;;;;;;;;;5041945;28;20224;-86
2022/03/19 00:12:40;;;;;;;52.47;34.03;;;;;;;;;;5052793;28;20207;-85
2022/03/19 00:15:45;;;;;;;53.30;32.23;;;;;;;;;;5041758;28;20184;-85
2022/03/19 00:18:50;;;;;;;51.87;32.43;;;;;;;;;;5053349;28;20670;-85
2022/03/19 00:21:54;;;;;;;52.23;32.07;;;;;;;;;;5041671;28;20567;-85
2022/03/19 00:24:59;;;;;;;54.17;31.03;;;;;;;;;;5041773;28;20586;-85
2022/03/19 00:28:04;;;;;;;50.20;30.47;;;;;;;;;;5041397;28;20187;-85
2022/03/19 00:31:08;;;;;;;50.43;30.43;;;;;;;;;;5041580;28;20279;-85
2022/03/19 00:34:12;;;;;;;52.03;31.20;;;;;;;;;;5041659;28;20548;-85
2022/03/19 00:37:16;;;;;;;50.17;29.03;;;;;;;;;;5053147;28;20210;-85
2022/03/19 00:40:22;;;;;;;49.63;30.33;;;;;;;;;;5053071;28;20220;-85
2022/03/19 00:43:26;;;;;;;50.63;29.40;;;;;;;;;;5041699;28;20178;-85
2022/03/19 00:46:31;;;;;;;48.67;29.93;;;;;;;;;;5041782;28;20184;-85
2022/03/19 00:49:35;;;;;;;46.50;28.03;;;;;;;;;;5041207;28;20219;-85
2022/03/19 00:52:40;;;;;;;47.03;28.97;;;;;;;;;;5041145;28;20203;-85
2022/03/19 00:55:44;;;;;;;46.10;28.40;;;;;;;;;;5052564;28;20563;-85
2022/03/19 00:58:49;;;;;;;48.97;29.20;;;;;;;;;;5045102;28;20211;-85
2022/03/19 01:01:56;;;;;;;44.33;27.23;;;;;;;;;;5045214;28;20540;-85
2022/03/19 01:05:01;;;;;;;43.67;28.47;;;;;;;;;;5044467;28;20184;-85
2022/03/19 01:08:05;;;;;;;42.93;27.60;;;;;;;;;;5044709;28;20546;-85
2022/03/19 01:11:10;;;;;;;45.07;27.60;;;;;;;;;;5044747;28;20589;-85
2022/03/19 01:14:15;;;;;;;49.33;28.77;;;;;;;;;;5033216;28;20196;-85
2022/03/19 01:17:19;;;;;;;45.30;27.50;;;;;;;;;;5056051;28;20220;-85
2022/03/19 01:20:27;;;;;;;44.90;27.30;;;;;;;;;;5055442;28;21221;-85
2022/03/19 01:23:31;;;;;;;44.20;26.77;;;;;;;;;;5044195;28;20550;-85
2022/03/19 01:26:36;;;;;;;45.80;28.03;;;;;;;;;;5055446;28;20177;-85
2022/03/19 01:29:41;;;;;;;46.03;28.27;;;;;;;;;;5044014;28;20621;-85
2022/03/19 01:32:46;;;;;;;41.73;26.73;;;;;;;;;;5055719;28;20554;-85
2022/03/19 01:35:51;;;;;;;42.47;26.47;;;;;;;;;;5043806;28;20563;-85
2022/03/19 01:38:56;;;;;;;41.23;26.97;;;;;;;;;;5055670;28;20612;-85
2022/03/19 01:42:00;;;;;;;45.83;26.27;;;;;;;;;;5055374;28;20927;-85
2022/03/19 01:45:09;;;;;;;47.00;26.63;;;;;;;;;;5032756;28;20559;-85
2022/03/19 01:48:13;;;;;;;42.70;25.43;;;;;;;;;;5043936;28;20180;-85
2022/03/19 01:51:19;;;;;;;43.57;25.80;;;;;;;;;;5043631;28;20605;-85
2022/03/19 01:54:31;;;;;;;41.50;26.10;;;;;;;;;;5043510;28;20613;-85
2022/03/19 01:57:38;;;;;;;41.50;27.07;;;;;;;;;;5055275;28;20597;-85
2022/03/19 02:00:44;;;;;;;43.20;25.97;;;;;;;;;;5054613;28;20644;-85
2022/03/19 02:03:49;;;;;;;43.27;26.57;;;;;;;;;;5055050;28;20617;-85
2022/03/19 02:06:54;;;;;;;41.57;26.63;;;;;;;;;;5043668;28;20550;-85
2022/03/19 02:10:00;;;;;;;42.93;25.83;;;;;;;;;;5043196;28;20643;-85
2022/03/19 02:13:04;;;;;;;45.23;26.17;;;;;;;;;;5043511;28;20554;-85
2022/03/19 02:16:09;;;;;;;42.00;25.57;;;;;;;;;;5054936;28;20613;-85
2022/03/19 02:19:13;;;;;;;42.83;26.60;;;;;;;;;;5043066;28;20601;-85
2022/03/19 02:22:19;;;;;;;42.57;24.97;;;;;;;;;;5055325;28;20609;-85
2022/03/19 02:25:36;;;;;;;45.90;26.57;;;;;;;;;;5042933;28;20617;-85
2022/03/19 02:28:40;;;;;;;42.90;26.30;;;;;;;;;;5054577;28;20550;-85
2022/03/19 02:31:47;;;;;;;40.10;24.07;;;;;;;;;;5043282;28;20550;-85
2022/03/19 02:34:53;;;;;;;40.07;24.40;;;;;;;;;;5054517;28;20550;-85
2022/03/19 02:37:58;;;;;;;39.50;24.43;;;;;;;;;;5054473;28;20600;-85
2022/03/19 02:41:04;;;;;;;43.80;25.27;;;;;;;;;;5065858;28;20637;-85
2022/03/19 02:44:10;;;;;;;39.90;23.73;;;;;;;;;;5042869;28;20562;-85
2022/03/19 02:47:14;;;;;;;40.77;24.77;;;;;;;;;;5043082;28;21076;-85
2022/03/19 02:50:18;;;;;;;40.43;24.30;;;;;;;;;;5054177;28;20639;-85
2022/03/19 02:53:23;;;;;;;37.50;23.97;;;;;;;;;;5054247;28;20550;-85
2022/03/19 02:56:28;;;;;;;42.30;25.13;;;;;;;;;;5042392;28;20610;-85
2022/03/19 02:59:34;;;;;;;37.07;24.27;;;;;;;;;;5042383;28;20625;-85
2022/03/19 03:02:38;;;;;;;42.33;24.67;;;;;;;;;;5042544;28;20605;-85
2022/03/19 03:05:42;;;;;;;39.03;24.23;;;;;;;;;;5054557;28;20563;-84
2022/03/19 03:08:46;;;;;;;40.03;23.70;;;;;;;;;;5054373;28;20542;-85
2022/03/19 03:11:51;;;;;;;36.33;22.70;;;;;;;;;;5042493;28;20609;-85
2022/03/19 03:14:56;;;;;;;34.43;22.50;;;;;;;;;;5042849;28;20615;-85
2022/03/19 03:18:01;;;;;;;44.63;24.57;;;;;;;;;;5053509;28;20605;-85
2022/03/19 03:21:05;;;;;;;33.47;23.27;;;;;;;;;;5064290;28;21215;-85
2022/03/19 03:24:11;;;;;;;36.10;22.90;;;;;;;;;;5053476;28;20554;-85
2022/03/19 03:27:15;;;;;;;37.40;22.87;;;;;;;;;;5042061;28;20554;-85
2022/03/19 03:30:20;;;;;;;35.17;22.83;;;;;;;;;;5053244;28;21232;-85
2022/03/19 03:33:24;;;;;;;36.63;22.60;;;;;;;;;;5041817;28;21142;-85
2022/03/19 03:36:28;;;;;;;35.60;22.20;;;;;;;;;;5053524;28;21104;-85
2022/03/19 03:39:32;;;;;;;40.17;22.40;;;;;;;;;;5041705;28;21219;-85
2022/03/19 03:42:41;;;;;;;34.80;22.63;;;;;;;;;;5052994;28;20554;-85
2022/03/19 03:45:45;;;;;;;36.30;21.77;;;;;;;;;;5053162;28;20550;-85
2022/03/19 03:48:50;;;;;;;38.07;23.10;;;;;;;;;;5052948;28;20578;-85
2022/03/19 03:51:55;;;;;;;36.57;22.33;;;;;;;;;;5053271;28;20551;-85
2022/03/19 03:54:59;;;;;;;35.17;22.70;;;;;;;;;;5041747;28;21118;-85
2022/03/19 03:58:05;;;;;;;34.47;21.30;;;;;;;;;;5052873;28;20602;-85
2022/03/19 04:01:09;;;;;;;36.40;22.00;;;;;;;;;;5052316;28;20655;-85
2022/03/19 04:04:13;;;;;;;33.87;21.27;;;;;;;;;;5041474;28;20550;-85
2022/03/19 04:07:18;;;;;;;35.37;22.40;;;;;;;;;;5041686;28;20541;-85
2022/03/19 04:10:23;;;;;;;40.10;23.17;;;;;;;;;;5041442;28;20637;-85
2022/03/19 04:13:27;;;;;;;36.80;21.57;;;;;;;;;;5053497;28;20554;-85
2022/03/19 04:16:32;;;;;;;35.30;21.67;;;;;;;;;;5053165;28;20568;-85
2022/03/19 04:19:36;;;;;;;33.90;21.77;;;;;;;;;;5041468;28;21243;-85
2022/03/19 04:22:44;;;;;;;33.43;21.03;;;;;;;;;;5041428;28;20573;-85
2022/03/19 04:25:48;;;;;;;37.57;23.57;;;;;;;;;;5052988;28;20558;-85
2022/03/19 04:28:53;;;;;;;34.50;21.73;;;;;;;;;;5041563;28;20898;-85
2022/03/19 04:31:58;;;;;;;35.47;22.13;;;;;;;;;;5042901;28;20605;-85
2022/03/19 04:36:29;;;;;;;33.60;21.53;;;;;;;;;;5068511;28;20599;-85
2022/03/19 04:38:30;;;;;;;34.97;22.27;;;;;;;;;;5044731;28;20784;-85
2022/03/19 04:41:36;;;;;;;36.33;21.47;;;;;;;;;;5044989;28;20562;-85
2022/03/19 04:44:41;;;;;;;40.17;21.37;;;;;;;;;;5068196;28;20542;-85
2022/03/19 04:47:45;;;;;;;35.47;22.20;;;;;;;;;;5045294;28;20542;-84
2022/03/19 04:50:50;;;;;;;36.13;21.60;;;;;;;;;;5058004;28;20635;-84
2022/03/19 04:53:56;;;;;;;38.67;22.27;;;;;;;;;;5069918;28;20613;-84
2022/03/19 04:57:02;;;;;;;35.93;21.20;;;;;;;;;;5047245;28;20925;-84
2022/03/19 05:00:10;;;;;;;37.80;22.60;;;;;;;;;;5057670;28;20641;-84
2022/03/19 05:03:15;;;;;;;34.70;21.87;;;;;;;;;;5058148;28;20602;-84
2022/03/19 05:06:19;;;;;;;33.10;21.17;;;;;;;;;;5070030;28;20553;-84
2022/03/19 05:12:47;;;;;;;35.87;21.57;;;;;;;;;;5069951;28;20552;-84
2022/03/19 05:15:51;;;;;;;37.13;21.77;;;;;;;;;;5058522;28;20555;-84
2022/03/19 05:18:55;;;;;;;39.60;21.70;;;;;;;;;;5046262;28;20615;-84
2022/03/19 05:22:00;;;;;;;33.30;21.10;;;;;;;;;;5046318;28;20619;-84
2022/03/19 05:25:05;;;;;;;35.47;21.27;;;;;;;;;;5046497;28;20613;-84
2022/03/19 05:28:09;;;;;;;35.03;21.30;;;;;;;;;;5058711;28;20538;-84
2022/03/19 05:31:15;;;;;;;34.30;21.13;;;;;;;;;;5047279;28;20634;-84
2022/03/19 05:34:31;;;;;;;38.33;21.47;;;;;;;;;;5058078;28;20617;-84
2022/03/19 05:37:35;;;;;;;31.93;21.17;;;;;;;;;;5058463;28;21104;-84
2022/03/19 05:40:40;;;;;;;37.57;22.63;;;;;;;;;;5057685;28;20629;-84
2022/03/19 05:43:44;;;;;;;34.90;20.60;;;;;;;;;;5057251;28;20613;-84
2022/03/19 05:46:48;;;;;;;36.67;21.97;;;;;;;;;;5058110;28;20622;-84
2022/03/19 05:49:53;;;;;;;34.20;21.37;;;;;;;;;;5057116;28;20629;-84
2022/03/19 05:52:57;;;;;;;39.10;22.77;;;;;;;;;;5046132;28;20634;-84
2022/03/19 05:56:02;;;;;;;34.30;21.53;;;;;;;;;;5057589;28;20562;-84
2022/03/19 05:59:07;;;;;;;37.03;21.53;;;;;;;;;;5046242;28;20603;-84
2022/03/19 06:02:11;;;;;;;36.07;22.47;;;;;;;;;;5057927;28;20618;-84
2022/03/19 06:05:15;;;;;;;35.93;22.13;;;;;;;;;;5034642;28;20639;-84
2022/03/19 06:08:20;;;;;;;34.60;21.40;;;;;;;;;;5034927;28;20972;-84
2022/03/19 06:11:25;;;;;;;35.83;21.73;;;;;;;;;;5045663;28;20558;-84
2022/03/19 06:14:29;;;;;;;34.03;21.07;;;;;;;;;;5057059;28;20556;-84
2022/03/19 06:17:33;;;;;;;41.40;23.57;;;;;;;;;;5057667;28;20547;-84
2022/03/19 06:20:37;;;;;;;41.37;24.90;;;;;;;;;;5045979;28;20618;-84
2022/03/19 06:23:42;;;;;;;39.27;24.17;;;;;;;;;;5057974;28;20554;-84
2022/03/19 06:26:46;;;;;;;37.50;22.70;;;;;;;;;;5056823;28;20558;-86
2022/03/19 06:29:50;;;;;;;36.50;22.27;;;;;;;;;;5054345;28;20631;-86
2022/03/19 06:32:55;;;;;;;36.93;22.37;;;;;;;;;;5054959;28;20542;-85
2022/03/19 06:39:23;;;;;;;37.63;21.83;;;;;;;;;;5054411;28;20669;-85
2022/03/19 06:42:27;;;;;;;35.17;22.13;;;;;;;;;;5043138;28;20574;-85
2022/03/19 06:45:31;;;;;;;37.23;22.70;;;;;;;;;;5043457;28;20550;-85
2022/03/19 06:48:35;;;;;;;36.20;22.87;;;;;;;;;;5043050;28;20607;-85
2022/03/19 06:51:40;;;;;;;39.23;23.20;;;;;;;;;;5042654;28;20555;-86
2022/03/19 06:54:44;;;;;;;38.50;23.37;;;;;;;;;;5043441;28;20550;-84
2022/03/19 06:57:49;;;;;;;35.30;22.60;;;;;;;;;;5042676;28;20965;-86
2022/03/19 07:00:53;;;;;;;37.73;23.13;;;;;;;;;;5043101;28;20641;-86
2022/03/19 07:03:58;;;;;;;35.03;21.70;;;;;;;;;;5044250;28;20550;-85
2022/03/19 07:07:02;;;;;;;36.47;21.63;;;;;;;;;;5058577;28;20557;-84
2022/03/19 07:10:07;;;;;;;34.80;21.47;;;;;;;;;;5046138;28;20584;-85
2022/03/19 07:13:11;;;;;;;33.77;21.83;;;;;;;;;;5053975;28;20176;-86
2022/03/19 07:16:16;;;;;;;32.90;21.87;;;;;;;;;;5042703;28;20183;-85
2022/03/19 07:19:19;;;;;;;31.73;21.47;;;;;;;;;;5045237;28;20238;-85
2022/03/19 07:22:24;;;;;;;34.50;21.67;;;;;;;;;;5065827;28;20193;-85
2022/03/19 07:25:32;;;;;;;32.17;20.50;;;;;;;;;;5044173;28;20180;-85
2022/03/19 07:28:37;;;;;;;35.07;22.30;;;;;;;;;;5061212;28;20183;-84
2022/03/19 07:31:42;;;;;;;34.77;21.50;;;;;;;;;;5055434;28;20188;-85
2022/03/19 07:34:46;;;;;;;30.57;20.43;;;;;;;;;;5055145;28;20191;-85
2022/03/19 07:37:50;;;;;;;34.90;20.87;;;;;;;;;;5056390;28;20183;-84
2022/03/19 07:44:17;;;;;;;28.07;19.30;;;;;;;;;;5057458;28;20185;-84
2022/03/19 07:47:21;;;;;;;30.27;19.17;;;;;;;;;;5061026;28;20188;-85
2022/03/19 07:50:26;;;;;;;28.00;18.63;;;;;;;;;;5053327;28;20215;-85
2022/03/19 07:53:30;;;;;;;26.90;19.00;;;;;;;;;;5059658;28;20623;-84
2022/03/19 07:56:34;;;;;;;31.77;19.03;;;;;;;;;;5056361;28;20655;-85
2022/03/19 07:59:38;;;;;;;27.13;17.43;;;;;;;;;;5065999;28;20236;-85
2022/03/19 08:02:43;;;;;;;26.93;18.00;;;;;;;;;;5055869;28;20195;-84
2022/03/19 08:05:47;;;;;;;28.33;17.80;;;;;;;;;;5055220;28;20547;-85
2022/03/19 08:08:51;;;;;;;27.53;17.33;;;;;;;;;;5053331;28;20191;-85
2022/03/19 08:11:56;;;;;;;28.57;19.10;;;;;;;;;;5042020;28;20208;-85
2022/03/19 08:15:02;;;;;;;29.90;18.03;;;;;;;;;;5042327;28;20212;-85
2022/03/19 08:18:09;;;;;;;25.97;18.73;;;;;;;;;;5048585;28;20655;-84
2022/03/19 08:21:14;;;;;;;27.60;17.90;;;;;;;;;;5042558;28;20220;-85
2022/03/19 08:24:19;;;;;;;28.80;18.13;;;;;;;;;;5053410;28;20184;-85
2022/03/19 08:27:24;;;;;;;29.13;18.93;;;;;;;;;;5042357;28;20187;-85
2022/03/19 08:30:28;;;;;;;27.60;17.57;;;;;;;;;;5042877;28;20571;-85
2022/03/19 08:33:32;;;;;;;25.60;17.20;;;;;;;;;;5054454;28;20208;-85
2022/03/19 08:36:36;;;;;;;29.57;17.77;;;;;;;;;;5043005;28;20189;-86
2022/03/19 08:44:02;;;;;;;31.10;17.27;;;;;;;;;;5059547;28;20195;-85
2022/03/19 08:47:07;;;;;;;28.63;15.77;;;;;;;;;;5054212;28;20199;-85
2022/03/19 08:50:12;;;;;;;25.77;16.63;;;;;;;;;;5033694;28;20242;-84
2022/03/19 08:53:16;;;;;;;25.97;16.67;;;;;;;;;;5058731;28;20184;-85
2022/03/19 08:56:20;;;;;;;24.73;16.53;;;;;;;;;;5043645;28;20199;-85
2022/03/19 08:59:25;;;;;;;27.20;16.80;;;;;;;;;;5054134;28;20230;-85
2022/03/19 09:02:29;;;;;;;28.20;15.93;;;;;;;;;;5043968;28;20551;-84
2022/03/19 09:05:33;;;;;;;28.30;17.80;;;;;;;;;;5055717;28;20183;-84
2022/03/19 09:08:37;;;;;;;25.60;17.17;;;;;;;;;;5054775;28;20201;-84
2022/03/19 09:11:41;;;;;;;25.13;17.17;;;;;;;;;;5053394;28;20275;-85
2022/03/19 09:14:45;;;;;;;22.73;15.97;;;;;;;;;;5052218;28;20203;-86
2022/03/19 09:17:50;;;;;;;27.17;16.10;;;;;;;;;;5056753;28;20191;-84
2022/03/19 09:20:54;;;;;;;28.83;16.37;;;;;;;;;;5044459;28;20590;-86
2022/03/19 09:23:58;;;;;;;24.60;15.43;;;;;;;;;;5064946;28;20211;-84
2022/03/19 09:27:04;;;;;;;22.97;15.50;;;;;;;;;;5045880;28;20187;-85
2022/03/19 09:30:09;;;;;;;22.70;15.43;;;;;;;;;;5057076;28;20226;-85
2022/03/19 09:33:14;;;;;;;30.10;16.00;;;;;;;;;;5045732;28;20238;-85
2022/03/19 09:36:19;;;;;;;20.77;14.97;;;;;;;;;;5058326;28;20191;-84
2022/03/19 09:39:23;;;;;;;23.90;14.67;;;;;;;;;;5070888;28;20235;-85
2022/03/19 09:42:32;;;;;;;22.00;14.33;;;;;;;;;;5044430;28;20187;-86
2022/03/19 09:45:38;;;;;;;19.63;14.10;;;;;;;;;;5055887;28;20678;-86
2022/03/19 09:48:42;;;;;;;24.83;14.63;;;;;;;;;;5055829;28;20203;-85
2022/03/19 09:51:54;;;;;;;22.27;14.03;;;;;;;;;;5055605;28;20559;-85
2022/03/19 09:54:59;;;;;;;21.33;13.23;;;;;;;;;;5044064;28;20187;-86
2022/03/19 09:58:04;;;;;;;20.53;13.47;;;;;;;;;;5044399;28;20187;-85
2022/03/19 10:01:08;;;;;;;21.13;14.00;;;;;;;;;;5044667;28;20243;-85
2022/03/19 10:04:15;;;;;;;19.03;13.03;;;;;;;;;;5054602;28;20187;-85
2022/03/19 10:10:46;;;;;;;18.63;12.87;;;;;;;;;;5054236;28;20223;-85
2022/03/19 10:13:52;;;;;;;24.67;12.97;;;;;;;;;;5055416;28;20192;-85
2022/03/19 10:16:57;;;;;;;23.87;13.50;;;;;;;;;;5066910;28;20187;-84
2022/03/19 10:20:10;;;;;;;24.57;13.37;;;;;;;;;;5043716;28;20231;-86
2022/03/19 10:23:16;;;;;;;18.30;13.40;;;;;;;;;;5055406;28;20189;-85
2022/03/19 10:26:30;;;;;;;20.53;12.90;;;;;;;;;;5055354;28;20187;-84
2022/03/19 10:29:37;;;;;;;26.20;14.60;;;;;;;;;;5042500;28;20219;-86
2022/03/19 10:32:41;;;;;;;21.20;13.17;;;;;;;;;;5044594;28;20543;-85
2022/03/19 10:35:45;;;;;;;20.63;13.70;;;;;;;;;;5054216;28;20179;-85
2022/03/19 10:38:49;;;;;;;19.57;12.87;;;;;;;;;;5055405;28;20187;-84
2022/03/19 10:41:55;;;;;;;21.30;13.27;;;;;;;;;;5055082;28;20184;-85
2022/03/19 10:44:59;;;;;;;21.10;13.70;;;;;;;;;;5043144;28;20189;-85
2022/03/19 10:48:03;;;;;;;20.63;13.17;;;;;;;;;;5054850;28;20251;-86
2022/03/19 10:51:09;;;;;;;18.30;13.17;;;;;;;;;;5042730;28;20235;-85
2022/03/19 10:54:14;;;;;;;20.80;12.97;;;;;;;;;;5043386;28;20203;-84
2022/03/19 10:57:18;;;;;;;19.00;12.13;;;;;;;;;;5045405;28;20183;-84
2022/03/19 11:00:22;;;;;;;17.03;11.87;;;;;;;;;;5044894;28;20238;-85
2022/03/19 11:03:29;;;;;;;17.13;11.63;;;;;;;;;;5045062;28;20182;-85
2022/03/19 11:06:41;;;;;;;16.27;11.17;;;;;;;;;;5045426;28;20191;-85
2022/03/19 11:09:49;;;;;;;15.53;11.20;;;;;;;;;;5044738;28;20211;-85
2022/03/19 11:12:59;;;;;;;18.77;12.60;;;;;;;;;;5045749;28;20184;-85
2022/03/19 11:16:04;;;;;;;18.83;12.07;;;;;;;;;;5045607;28;20187;-85
2022/03/19 11:19:09;;;;;;;23.47;12.87;;;;;;;;;;5045956;28;20561;-84
2022/03/19 11:22:14;;;;;;;18.33;11.97;;;;;;;;;;5042744;28;20199;-84
2022/03/19 11:25:27;;;;;;;17.97;11.47;;;;;;;;;;5042138;28;20214;-84
2022/03/19 11:28:31;;;;;;;19.50;12.27;;;;;;;;;;5043362;28;20557;-85
2022/03/19 11:31:35;;;;;;;19.80;13.57;;;;;;;;;;5042254;28;20179;-84
2022/03/19 11:34:45;;;;;;;16.80;11.97;;;;;;;;;;5043328;28;20188;-85
2022/03/19 11:38:00;;;;;;;19.80;13.30;;;;;;;;;;5042119;28;20187;-84
2022/03/19 11:41:17;;;;;;;23.40;14.57;;;;;;;;;;5040938;28;20299;-86
2022/03/19 11:44:24;;;;;;;24.73;12.73;;;;;;;;;;5053207;28;20353;-85
2022/03/19 11:47:36;;;;;;;21.43;13.73;;;;;;;;;;5042608;28;20187;-84
2022/03/19 11:50:46;;;;;;;19.30;12.97;;;;;;;;;;5041835;28;20223;-85
2022/03/19 11:53:56;;;;;;;21.03;13.67;;;;;;;;;;5044872;28;20547;-85
2022/03/19 11:57:05;;;;;;;18.67;13.40;;;;;;;;;;5054902;28;20184;-85
2022/03/19 12:00:12;;;;;;;17.60;13.20;;;;;;;;;;5042522;28;20238;-85
2022/03/19 12:03:19;;;;;;;23.37;14.13;;;;;;;;;;5054878;28;20191;-85
2022/03/19 12:06:30;;;;;;;20.60;14.33;;;;;;;;;;5041304;28;20211;-86
2022/03/19 12:09:40;;;;;;;19.73;12.63;;;;;;;;;;5064373;28;20265;-86
2022/03/19 12:12:46;;;;;;;19.30;13.00;;;;;;;;;;5053891;28;20192;-85
2022/03/19 12:15:50;;;;;;;16.13;12.20;;;;;;;;;;5042239;28;20183;-85
2022/03/19 12:18:56;;;;;;;20.40;12.57;;;;;;;;;;5058108;28;20566;-84
2022/03/19 12:22:00;;;;;;;17.87;12.60;;;;;;;;;;5054230;28;20215;-85
2022/03/19 12:25:16;;;;;;;19.63;13.20;;;;;;;;;;5041057;28;20207;-85
2022/03/19 12:28:21;;;;;;;20.30;12.53;;;;;;;;;;5041261;28;20207;-86
2022/03/19 12:31:45;;;;;;;21.27;12.40;;;;;;;;;;5052771;28;20183;-86
2022/03/19 12:34:59;;;;;;;17.00;12.37;;;;;;;;;;5041449;28;20184;-85
2022/03/19 12:38:04;;;;;;;18.50;12.23;;;;;;;;;;5053073;28;20199;-85
2022/03/19 12:41:28;;;;;;;20.07;13.10;;;;;;;;;;5041630;28;20250;-85
2022/03/19 12:44:36;;;;;;;18.17;12.20;;;;;;;;;;5042944;28;20188;-85
2022/03/19 12:47:40;;;;;;;18.43;13.00;;;;;;;;;;5042457;28;20184;-86
2022/03/19 12:50:53;;;;;;;18.13;12.87;;;;;;;;;;5041081;28;20709;-85
2022/03/19 12:53:58;;;;;;;18.83;13.43;;;;;;;;;;5045561;28;20195;-86
2022/03/19 12:57:17;;;;;;;19.30;13.33;;;;;;;;;;5045132;28;20191;-86
2022/03/19 13:00:21;;;;;;;19.90;12.83;;;;;;;;;;5071919;22;20238;-89
2022/03/19 13:03:30;;;;;;;17.97;12.73;;;;;;;;;;5056437;28;20187;-89
2022/03/19 13:06:41;;;;;;;18.70;12.70;;;;;;;;;;5054617;28;20537;-89
2022/03/19 13:09:45;;;;;;;18.17;12.80;;;;;;;;;;5065461;28;20191;-90
2022/03/19 13:13:02;;;;;;;17.60;12.13;;;;;;;;;;5053054;28;20202;-87
2022/03/19 13:16:07;;;;;;;18.10;12.57;;;;;;;;;;5053773;28;20198;-88
2022/03/19 13:19:12;;;;;;;17.53;13.30;;;;;;;;;;5053096;28;20190;-88
2022/03/19 13:22:20;;;;;;;17.17;12.47;;;;;;;;;;5053283;28;20214;-88
2022/03/19 13:25:29;;;;;;;20.60;13.03;;;;;;;;;;5053037;28;20195;-88
2022/03/19 13:28:37;;;;;;;17.50;11.90;;;;;;;;;;5065030;28;20367;-88
2022/03/19 13:31:43;;;;;;;17.97;12.53;;;;;;;;;;5062832;28;20708;-89
2022/03/19 13:34:51;;;;;;;20.70;12.97;;;;;;;;;;5051967;28;20183;-89
2022/03/19 13:37:55;;;;;;;19.47;12.67;;;;;;;;;;5064556;28;20206;-89
2022/03/19 13:41:00;;;;;;;21.07;13.60;;;;;;;;;;5052475;28;20226;-89
2022/03/19 13:44:04;;;;;;;19.27;13.07;;;;;;;;;;5075709;28;20538;-88
2022/03/19 13:47:19;;;;;;;19.33;12.60;;;;;;;;;;5052776;28;20182;-89
2022/03/19 13:50:24;;;;;;;15.50;11.70;;;;;;;;;;5064172;28;20223;-88
2022/03/19 13:53:40;;;;;;;15.83;11.80;;;;;;;;;;5052535;28;20190;-89
2022/03/19 13:56:49;;;;;;;23.33;12.70;;;;;;;;;;5052499;28;20191;-89
2022/03/19 14:00:10;;;;;;;16.30;12.10;;;;;;;;;;5063618;28;20665;-89
2022/03/19 14:03:24;;;;;;;15.90;10.97;;;;;;;;;;5052852;28;20530;-89
2022/03/19 14:06:36;;;;;;;16.63;11.90;;;;;;;;;;5052022;28;20203;-89
2022/03/19 14:09:44;;;;;;;20.57;12.10;;;;;;;;;;5063592;28;20187;-89
2022/03/19 14:12:50;;;;;;;17.20;11.73;;;;;;;;;;5075212;28;20182;-89
2022/03/19 14:15:56;;;;;;;16.77;11.60;;;;;;;;;;5052122;28;20187;-88
2022/03/19 14:19:02;;;;;;;31.17;13.03;;;;;;;;;;5063614;28;20186;-89
2022/03/19 14:22:05;;;;;;;17.17;11.97;;;;;;;;;;5051563;28;20222;-89
2022/03/19 14:25:10;;;;;;;17.53;11.97;;;;;;;;;;5051841;28;20190;-89
2022/03/19 14:28:17;;;;;;;17.50;12.60;;;;;;;;;;5075155;28;20183;-88
2022/03/19 14:31:21;;;;;;;20.70;13.40;;;;;;;;;;5062967;28;20215;-87
2022/03/19 14:34:25;;;;;;;17.87;11.83;;;;;;;;;;5052149;28;20186;-85
2022/03/19 14:37:30;;;;;;;19.53;12.23;;;;;;;;;;5074994;28;20180;-88
2022/03/19 14:40:34;;;;;;;18.83;12.57;;;;;;;;;;5063061;28;20581;-88
2022/03/19 14:43:41;;;;;;;22.63;13.43;;;;;;;;;;5051806;28;20538;-88
2022/03/19 14:46:47;;;;;;;18.27;12.20;;;;;;;;;;5051682;28;20183;-87
2022/03/19 14:49:51;;;;;;;17.93;11.93;;;;;;;;;;5074810;28;20186;-88
2022/03/19 14:52:55;;;;;;;16.13;10.70;;;;;;;;;;5051430;28;20533;-88
2022/03/19 14:56:00;;;;;;;19.30;11.57;;;;;;;;;;5051214;28;20187;-88
2022/03/19 14:59:05;;;;;;;17.57;11.47;;;;;;;;;;5051481;28;20184;-88
2022/03/19 15:02:09;;;;;;;19.47;12.33;;;;;;;;;;5062348;28;20234;-88
2022/03/19 15:05:13;;;;;;;16.80;10.97;;;;;;;;;;5050818;28;20186;-88
2022/03/19 15:08:18;;;;;;;16.13;11.00;;;;;;;;;;5051104;28;20208;-88
2022/03/19 15:11:27;;;;;;;14.00;9.60;;;;;;;;;;5062156;28;20223;-88
2022/03/19 15:14:32;;;;;;;18.17;9.43;;;;;;;;;;5051293;28;20172;-88
2022/03/19 15:17:38;;;;;;;14.33;9.60;;;;;;;;;;5050790;28;20180;-88
2022/03/19 15:20:44;;;;;;;15.57;9.23;;;;;;;;;;5050678;28;20218;-88
2022/03/19 15:23:48;;;;;;;12.67;8.07;;;;;;;;;;5050791;28;20630;-88
2022/03/19 15:26:53;;;;;;;17.30;9.40;;;;;;;;;;5050491;28;20179;-88
2022/03/19 15:29:57;;;;;;;18.00;9.37;;;;;;;;;;5050548;28;20183;-88
2022/03/19 15:33:01;;;;;;;12.63;8.60;;;;;;;;;;5050618;28;20175;-88
2022/03/19 15:36:12;;;;;;;14.33;8.67;;;;;;;;;;5062400;28;20175;-88
2022/03/19 15:39:16;;;;;;;14.17;8.97;;;;;;;;;;5062116;28;20176;-88
2022/03/19 15:42:21;;;;;;;14.23;9.33;;;;;;;;;;5061783;28;20203;-88
2022/03/19 15:45:26;;;;;;;16.83;9.97;;;;;;;;;;5050703;28;20188;-88
2022/03/19 15:48:30;;;;;;;16.10;9.73;;;;;;;;;;5050150;28;20629;-89
2022/03/19 15:51:35;;;;;;;15.30;11.00;;;;;;;;;;5061525;28;20214;-88
2022/03/19 15:54:39;;;;;;;19.20;12.23;;;;;;;;;;5050902;28;20530;-88
2022/03/19 15:57:43;;;;;;;17.70;13.13;;;;;;;;;;5061654;28;20202;-88
2022/03/19 16:00:47;;;;;;;19.10;13.57;;;;;;;;;;5050147;28;20234;-88
2022/03/19 16:03:51;;;;;;;22.27;14.63;;;;;;;;;;5050209;28;20176;-88
2022/03/19 16:06:56;;;;;;;19.20;13.80;;;;;;;;;;5073493;28;20190;-88
2022/03/19 16:10:00;;;;;;;23.43;15.77;;;;;;;;;;5050311;28;20192;-87
2022/03/19 16:13:04;;;;;;;21.57;15.37;;;;;;;;;;5061425;28;20540;-88
2022/03/19 16:16:08;;;;;;;24.17;15.37;;;;;;;;;;5061625;28;20186;-88
2022/03/19 16:19:12;;;;;;;21.83;14.87;;;;;;;;;;5050327;28;20181;-89
2022/03/19 16:22:17;;;;;;;23.07;16.00;;;;;;;;;;5061630;28;20685;-88
2022/03/19 16:25:21;;;;;;;23.60;14.70;;;;;;;;;;5061213;28;20211;-88
2022/03/19 16:28:25;;;;;;;22.83;16.20;;;;;;;;;;5053873;28;20179;-87
2022/03/19 16:31:29;;;;;;;26.60;16.93;;;;;;;;;;5053733;28;20214;-88
2022/03/19 16:34:33;;;;;;;23.90;16.37;;;;;;;;;;5053762;28;20561;-89
2022/03/19 16:37:37;;;;;;;27.57;17.03;;;;;;;;;;5077207;28;20182;-88
2022/03/19 16:40:41;;;;;;;25.40;16.90;;;;;;;;;;5065099;28;20718;-88
2022/03/19 16:43:45;;;;;;;26.97;17.10;;;;;;;;;;5053795;28;20176;-88
2022/03/19 16:46:53;;;;;;;23.00;16.30;;;;;;;;;;5065765;28;20195;-89
2022/03/19 16:49:57;;;;;;;26.87;18.70;;;;;;;;;;5065180;28;20179;-88
2022/03/19 16:53:01;;;;;;;27.60;18.07;;;;;;;;;;5053746;28;20182;-87
2022/03/19 16:56:07;;;;;;;28.83;19.23;;;;;;;;;;5053675;28;20676;-88
2022/03/19 16:59:11;;;;;;;27.13;19.80;;;;;;;;;;5065450;28;20541;-87
2022/03/19 17:02:15;;;;;;;33.17;19.97;;;;;;;;;;5064976;28;20203;-87
2022/03/19 17:05:21;;;;;;;30.40;20.13;;;;;;;;;;5065405;28;20176;-87
2022/03/19 17:08:25;;;;;;;28.40;19.43;;;;;;;;;;5053650;28;20672;-89
2022/03/19 17:11:29;;;;;;;31.33;21.17;;;;;;;;;;5064679;28;20226;-88
2022/03/19 17:14:33;;;;;;;29.73;20.57;;;;;;;;;;5053104;28;20569;-89
2022/03/19 17:17:38;;;;;;;30.83;19.83;;;;;;;;;;5065247;28;20175;-90
2022/03/19 17:20:43;;;;;;;29.70;19.53;;;;;;;;;;5064209;28;20578;-87
2022/03/19 17:23:48;;;;;;;30.23;19.63;;;;;;;;;;5053363;28;20568;-87
2022/03/19 17:26:51;;;;;;;25.93;19.13;;;;;;;;;;5053078;28;20190;-88
2022/03/19 17:29:56;;;;;;;30.17;19.77;;;;;;;;;;5053771;28;20194;-87
2022/03/19 17:33:00;;;;;;;27.60;18.87;;;;;;;;;;5075886;28;20176;-87
2022/03/19 17:36:04;;;;;;;28.47;18.67;;;;;;;;;;5052686;28;20183;-88
2022/03/19 17:39:09;;;;;;;31.50;19.20;;;;;;;;;;5063925;28;20190;-87
2022/03/19 17:42:12;;;;;;;29.50;18.80;;;;;;;;;;5052731;28;20208;-88
2022/03/19 17:45:17;;;;;;;29.10;18.40;;;;;;;;;;5052902;28;20192;-87
2022/03/19 17:48:21;;;;;;;27.20;17.70;;;;;;;;;;5064179;28;20199;-87
2022/03/19 17:51:26;;;;;;;26.97;18.10;;;;;;;;;;5063836;28;20215;-87
2022/03/19 17:54:31;;;;;;;27.57;19.10;;;;;;;;;;5075622;28;20187;-87
2022/03/19 17:57:35;;;;;;;29.80;18.93;;;;;;;;;;5053124;28;20179;-87
2022/03/19 18:00:39;;;;;;;28.57;18.63;;;;;;;;;;5063988;28;20231;-87
2022/03/19 18:03:43;;;;;;;26.13;18.53;;;;;;;;;;5052191;28;20219;-87
2022/03/19 18:06:47;;;;;;;27.57;17.83;;;;;;;;;;5063806;28;20195;-87
2022/03/19 18:09:53;;;;;;;23.40;16.80;;;;;;;;;;5074982;28;20202;-87
2022/03/19 18:12:57;;;;;;;24.67;17.47;;;;;;;;;;5052158;28;20203;-86
2022/03/19 18:16:01;;;;;;;26.77;16.77;;;;;;;;;;5063613;28;20302;-88
2022/03/19 18:19:06;;;;;;;28.60;17.90;;;;;;;;;;5052165;28;20183;-88